Time;durP1;ratioP1;P1;durP2;ratioP2;P2;SDS_P1;SDS_P2;PMS_P1;PMS_P2;Temp;Humidity;BMP_temperature;BMP_pressure;BME280_temperature;BME280_humidity;BME280_pressure;Samples;Min_cycle;Max_cycle;Signal;HPM_P1;HPM_P2
2023/10/17 00:00:39;;;;;;;2.75;1.50;;;;;;;19.16;44.11;101905.59;16112287;19;129796;-52
2023/10/17 00:06:01;;;;;;;4.72;1.70;;;;;;;19.15;44.37;101881.69;16108119;19;130920;-49
2023/10/17 00:11:31;;;;;;;4.22;1.80;;;;;;;19.14;44.61;101875.28;16110226;19;131143;-49
2023/10/17 00:16:55;;;;;;;1.90;1.40;;;;;;;19.13;44.23;101867.22;16106715;19;129451;-56
2023/10/17 00:22:23;;;;;;;2.25;1.40;;;;;;;19.12;44.53;101862.72;16111536;19;130542;-54
2023/10/17 00:27:46;;;;;;;3.60;1.70;;;;;;;19.11;44.56;101849.94;16110991;19;131396;-50
2023/10/17 00:33:12;;;;;;;5.13;1.73;;;;;;;19.10;44.71;101870.44;16108515;19;129534;-54
2023/10/17 00:38:35;;;;;;;3.35;1.65;;;;;;;19.08;44.46;101871.50;16112444;19;129758;-54
2023/10/17 00:43:58;;;;;;;3.63;1.60;;;;;;;19.08;44.48;101887.31;16114017;19;129909;-52
2023/10/17 00:49:21;;;;;;;3.35;1.73;;;;;;;19.05;44.39;101879.44;16123624;19;131446;-49
2023/10/17 00:54:44;;;;;;;2.22;1.60;;;;;;;19.04;44.46;101859.19;16124071;19;130906;-54
2023/10/17 01:00:35;;;;;;;2.78;1.60;;;;;;;19.04;44.50;101850.00;16123032;19;129213;-56
2023/10/17 01:06:01;;;;;;;4.03;1.60;;;;;;;19.01;44.44;101859.63;16124707;19;129537;-51
2023/10/17 01:11:29;;;;;;;3.40;1.70;;;;;;;19.01;44.27;101858.78;16123958;19;129494;-52
2023/10/17 01:16:54;;;;;;;2.47;1.40;;;;;;;19.00;44.33;101854.31;16123991;19;129320;-50
2023/10/17 01:22:16;;;;;;;2.27;1.50;;;;;;;18.98;44.35;101846.22;16121074;19;131554;-49
2023/10/17 01:27:40;;;;;;;2.88;1.70;;;;;;;18.97;44.27;101836.19;16122175;19;131792;-51
2023/10/17 01:33:02;;;;;;;2.87;1.87;;;;;;;18.96;44.38;101833.66;16118580;19;130155;-59
2023/10/17 01:38:28;;;;;;;4.30;1.88;;;;;;;18.95;44.35;101834.72;16121226;19;130044;-53
2023/10/17 01:43:50;;;;;;;3.33;1.80;;;;;;;18.94;44.42;101824.72;16120050;19;129807;-53
2023/10/17 01:49:13;;;;;;;3.05;1.45;;;;;;;18.93;43.93;101826.66;16118269;19;130379;-52
2023/10/17 01:54:36;;;;;;;3.58;1.65;;;;;;;18.91;44.35;101814.94;16112824;19;131040;-62
2023/10/17 02:00:00;;;;;;;3.15;1.65;;;;;;;18.90;44.19;101816.00;16117559;19;131100;-55
2023/10/17 02:05:22;;;;;;;2.25;1.33;;;;;;;18.89;44.15;101811.53;16114907;19;130327;-52
2023/10/17 02:10:47;;;;;;;3.55;1.40;;;;;;;18.88;44.21;101801.50;16117958;19;129020;-55
2023/10/17 02:16:12;;;;;;;2.00;1.50;;;;;;;18.87;44.01;101791.50;16118098;19;129479;-54
2023/10/17 02:21:39;;;;;;;3.87;1.60;;;;;;;18.85;44.11;101797.28;16117076;19;129455;-55
2023/10/17 02:27:07;;;;;;;3.97;1.80;;;;;;;18.85;43.83;101793.63;16116748;19;129762;-50
2023/10/17 02:32:29;;;;;;;3.85;2.05;;;;;;;18.84;43.80;101786.38;16114537;19;129571;-53
2023/10/17 02:37:51;;;;;;;3.83;1.90;;;;;;;18.81;43.99;101793.25;16118349;19;129632;-52
2023/10/17 02:43:13;;;;;;;3.35;1.58;;;;;;;18.82;43.94;101802.44;16109933;19;129639;-55
2023/10/17 02:48:38;;;;;;;3.20;1.80;;;;;;;18.79;44.07;101789.84;16110525;19;130182;-52
2023/10/17 02:54:05;;;;;;;3.90;1.50;;;;;;;18.80;43.78;101785.16;16111765;19;129678;-51
2023/10/17 02:59:27;;;;;;;2.40;1.58;;;;;;;18.78;43.90;101768.75;16112242;19;129740;-52
2023/10/17 03:04:49;;;;;;;2.30;1.67;;;;;;;18.76;44.26;101762.59;16111727;19;129724;-54
2023/10/17 03:10:20;;;;;;;2.55;1.70;;;;;;;18.75;44.25;101781.16;16109290;19;129357;-64
2023/10/17 03:15:46;;;;;;;2.88;1.58;;;;;;;18.74;43.66;101779.44;16112945;19;129989;-55
2023/10/17 03:21:08;;;;;;;;;;;;;;;18.70;44.15;101786.53;16107971;19;129901;-50
2023/10/17 03:26:39;;;;;;;3.05;1.60;;;;;;;18.71;43.69;101782.66;16113657;19;129728;-51
2023/10/17 03:32:04;;;;;;;1.80;1.40;;;;;;;18.70;43.71;101786.53;16109528;19;131199;-51
2023/10/17 03:42:53;;;;;;;4.47;2.10;;;;;;;18.69;43.99;101795.06;16112041;19;130842;-53
2023/10/17 03:48:15;;;;;;;2.75;1.75;;;;;;;18.67;43.51;101792.53;16106297;19;129839;-54
2023/10/17 03:53:46;;;;;;;2.55;1.77;;;;;;;18.67;44.00;101798.06;16110553;19;129688;-56
2023/10/17 04:04:55;;;;;;;4.10;1.95;;;;;;;18.64;43.52;101817.91;16113112;19;131180;-54
2023/10/17 04:10:22;;;;;;;2.88;1.73;;;;;;;18.63;43.85;101799.56;16111396;19;131610;-54
2023/10/17 04:15:44;;;;;;;3.30;1.88;;;;;;;18.63;43.82;101795.97;16112039;19;129788;-57
2023/10/17 04:21:17;;;;;;;5.30;2.25;;;;;;;18.61;43.75;101793.41;16114936;19;129682;-56
2023/10/17 04:26:44;;;;;;;3.53;2.05;;;;;;;18.61;43.62;101796.19;16127402;19;130275;-56
2023/10/17 04:32:13;;;;;;;3.10;1.73;;;;;;;18.60;43.58;101797.25;16125652;19;130377;-57
2023/10/17 04:37:37;;;;;;;5.82;2.00;;;;;;;18.59;43.55;101801.09;16126851;19;129959;-57
2023/10/17 04:48:46;;;;;;;4.88;2.00;;;;;;;18.57;43.86;101781.09;16121162;19;129406;-57
2023/10/17 04:55:17;;;;;;;5.07;1.92;;;;;;;18.56;43.80;101763.59;16122576;19;129390;-56
2023/10/17 05:00:10;;;;;;;3.67;1.83;;;;;;;18.55;43.71;101749.97;16122034;19;131351;-57
2023/10/17 05:06:00;;;;;;;2.40;1.52;;;;;;;18.53;43.67;101741.88;16123973;19;129541;-55
2023/10/17 06:20:04;;;;;;;3.47;1.58;;;;;;;18.54;43.33;101742.75;16102791;19;130107;-51
2023/10/17 06:31:34;;;;;;;3.22;2.00;;;;;;;18.51;43.59;101759.81;16116084;19;130132;-51
2023/10/17 06:36:59;;;;;;;4.33;1.87;;;;;;;18.48;43.47;101754.72;16116242;19;132738;-49
2023/10/17 06:42:29;;;;;;;4.45;1.55;;;;;;;18.46;43.64;101753.00;16115954;19;129574;-54
2023/10/17 06:47:57;;;;;;;5.10;2.00;;;;;;;18.45;43.14;101751.34;16115269;19;129409;-51
2023/10/17 06:53:27;;;;;;;3.13;1.67;;;;;;;18.42;43.40;101749.00;16112680;19;131151;-48
2023/10/17 06:58:50;;;;;;;3.03;1.55;;;;;;;18.41;43.17;101741.78;16112877;19;129805;-54
2023/10/17 07:04:12;;;;;;;3.60;1.65;;;;;;;18.42;43.37;101743.47;16114615;19;134824;-51
2023/10/17 07:09:38;;;;;;;4.72;1.45;;;;;;;18.41;43.22;101744.53;16114724;19;129808;-53
2023/10/17 07:15:00;;;;;;;4.18;1.63;;;;;;;18.41;43.21;101746.44;16109586;19;129609;-54
2023/10/17 07:26:05;;;;;;;3.70;1.48;;;;;;;18.39;43.00;101743.06;16112905;19;131605;-54
2023/10/17 07:31:32;;;;;;;4.10;1.70;;;;;;;18.40;42.87;101728.16;16114388;19;129705;-52
2023/10/17 07:37:22;;;;;;;2.90;1.58;;;;;;;18.39;42.65;101730.06;16109481;19;130160;-50
2023/10/17 07:42:45;;;;;;;3.33;1.60;;;;;;;18.40;42.93;101737.31;16112630;19;129229;-51
2023/10/17 07:48:23;;;;;;;3.17;1.40;;;;;;;18.38;42.65;101736.66;16110011;19;130562;-48
2023/10/17 07:53:48;;;;;;;6.78;1.70;;;;;;;18.35;42.84;101750.09;16113039;19;129495;-53
2023/10/17 07:59:15;;;;;;;4.10;1.60;;;;;;;18.36;43.18;101755.41;16126535;19;128911;-52
2023/10/17 08:04:37;;;;;;;3.00;1.48;;;;;;;18.38;42.70;101760.75;16130496;19;130261;-52
2023/10/17 08:10:00;;;;;;;4.55;1.38;;;;;;;18.37;42.93;101764.59;16134587;19;129243;-49
2023/10/17 08:15:22;;;;;;;3.15;1.70;;;;;;;18.35;43.05;101767.56;16128540;19;130890;-52
2023/10/17 08:26:29;;;;;;;2.63;1.35;;;;;;;18.33;42.71;101769.72;16126477;19;129345;-50
2023/10/17 08:32:02;;;;;;;3.58;1.75;;;;;;;18.33;42.95;101766.09;16121799;19;129361;-48
2023/10/17 08:37:32;;;;;;;6.15;1.77;;;;;;;18.37;42.80;101764.59;16122258;19;129333;-49
2023/10/17 08:42:56;;;;;;;2.70;1.40;;;;;;;18.37;42.85;101770.97;16126146;19;130631;-49
2023/10/17 08:48:19;;;;;;;3.60;1.65;;;;;;;18.36;42.89;101751.81;16119884;19;130320;-49
2023/10/17 08:53:42;;;;;;;2.30;1.38;;;;;;;18.36;42.73;101743.50;16122162;19;130581;-50
2023/10/17 08:59:04;;;;;;;4.32;1.70;;;;;;;18.35;42.76;101750.94;16121630;19;130653;-47
2023/10/17 09:04:31;;;;;;;4.30;1.40;;;;;;;18.37;42.23;101734.09;16122230;19;130710;-48
2023/10/17 09:09:55;;;;;;;4.38;1.50;;;;;;;18.38;42.63;101727.50;16119557;19;131923;-53
2023/10/17 09:15:39;;;;;;;3.35;1.20;;;;;;;18.41;42.04;101730.69;16120016;19;129581;-47
2023/10/17 09:21:04;;;;;;;3.92;1.48;;;;;;;18.42;42.13;101724.09;16120881;19;129340;-47
2023/10/17 09:26:26;;;;;;;2.70;1.40;;;;;;;18.43;41.76;101734.09;16122960;19;130714;-52
2023/10/17 09:31:50;;;;;;;2.63;1.40;;;;;;;18.49;41.84;101721.25;16122523;19;130427;-48
2023/10/17 09:37:13;;;;;;;7.80;1.77;;;;;;;18.57;42.04;101725.66;16120393;19;129034;-50
2023/10/17 09:42:35;;;;;;;7.78;1.70;;;;;;;18.65;41.60;101721.75;16116726;19;129326;-52
2023/10/17 09:48:01;;;;;;;3.17;1.63;;;;;;;18.69;41.86;101723.84;16119498;19;129645;-50
2023/10/17 09:53:29;;;;;;;5.63;1.30;;;;;;;18.75;41.80;101722.94;16119514;19;129588;-49
2023/10/17 09:58:55;;;;;;;4.72;1.10;;;;;;;18.79;41.62;101715.00;16120132;19;130233;-52
2023/10/17 10:04:18;;;;;;;5.63;1.10;;;;;;;18.81;42.01;101712.03;16116593;19;129548;-53
2023/10/17 10:09:41;;;;;;;6.93;1.48;;;;;;;18.84;41.81;101720.72;16114083;19;130423;-53
2023/10/17 10:15:06;;;;;;;9.60;1.15;;;;;;;18.83;42.34;101723.72;16116112;19;131787;-51
2023/10/17 10:20:28;;;;;;;2.63;1.08;;;;;;;18.79;41.71;101730.78;16113563;19;136321;-51
2023/10/17 10:26:23;;;;;;;3.13;0.98;;;;;;;18.73;41.95;101725.06;16117137;19;130476;-53
2023/10/17 10:31:44;;;;;;;3.25;1.15;;;;;;;18.69;41.96;101711.91;16106081;19;130940;-49
2023/10/17 10:37:08;;;;;;;2.67;0.90;;;;;;;18.65;41.80;101708.75;16105175;19;130418;-51
2023/10/17 10:42:50;;;;;;;3.25;1.10;;;;;;;18.62;41.57;101698.09;16107498;19;129439;-55
2023/10/17 10:48:17;;;;;;;9.23;1.50;;;;;;;18.60;41.87;101691.94;16103156;19;130066;-52
2023/10/17 10:53:39;;;;;;;2.92;1.00;;;;;;;18.56;41.82;101680.47;16104271;19;130609;-52
2023/10/17 10:59:02;;;;;;;1.48;0.80;;;;;;;18.55;41.73;101677.94;16104234;19;129733;-49
2023/10/17 11:04:24;;;;;;;5.72;1.40;;;;;;;18.53;41.75;101669.81;16106476;19;129722;-49
2023/10/17 11:10:01;;;;;;;2.50;0.88;;;;;;;18.53;41.94;101661.50;16113658;19;130051;-49
2023/10/17 11:15:26;;;;;;;2.20;1.08;;;;;;;18.50;41.50;101664.75;16112292;19;130497;-52
2023/10/17 11:20:56;;;;;;;2.55;0.82;;;;;;;18.50;41.70;101653.69;16115281;19;130343;-50
2023/10/17 11:26:23;;;;;;;2.70;1.33;;;;;;;18.51;41.80;101651.75;16112621;19;129901;-53
2023/10/17 11:31:50;;;;;;;2.67;1.10;;;;;;;18.50;41.41;101647.28;16112520;19;129748;-51
2023/10/17 11:37:19;;;;;;;2.95;0.90;;;;;;;18.51;41.72;101637.88;16109853;19;130569;-48
2023/10/17 11:42:40;;;;;;;1.73;0.80;;;;;;;18.46;41.49;101631.09;16111104;19;129913;-49
2023/10/17 11:48:27;;;;;;;3.95;0.73;;;;;;;18.47;41.58;101634.72;16102050;19;131968;-57
2023/10/17 11:54:09;;;;;;;2.10;1.02;;;;;;;18.47;41.38;101626.44;16106265;19;129754;-48
2023/10/17 11:59:57;;;;;;;2.15;0.70;;;;;;;18.42;41.51;101607.72;16108594;19;130912;-48
2023/10/17 12:05:20;;;;;;;2.28;1.05;;;;;;;18.42;41.65;101601.31;16108841;19;129620;-48
2023/10/17 12:10:43;;;;;;;2.15;1.00;;;;;;;18.40;41.47;101593.25;16109435;19;129620;-48
2023/10/17 12:16:11;;;;;;;3.83;0.90;;;;;;;18.38;41.21;101584.28;16107313;19;130471;-49
2023/10/17 12:21:33;;;;;;;4.85;0.98;;;;;;;18.38;41.45;101573.19;16111856;19;133817;-49
2023/10/17 12:26:55;;;;;;;2.33;0.80;;;;;;;18.38;41.09;101562.13;16107470;19;131369;-61
2023/10/17 12:32:19;;;;;;;2.13;0.98;;;;;;;18.39;41.21;101551.91;16109292;19;129495;-49
2023/10/17 12:37:45;;;;;;;4.18;0.93;;;;;;;18.37;41.39;101557.66;16108383;19;131520;-51
2023/10/17 12:43:11;;;;;;;2.63;0.80;;;;;;;18.37;41.27;101543.78;16119909;19;130440;-49
2023/10/17 12:48:33;;;;;;;2.28;0.70;;;;;;;18.36;40.93;101547.63;16125427;19;130420;-48
2023/10/17 12:53:55;;;;;;;3.42;0.80;;;;;;;18.35;41.23;101545.09;16122988;19;130442;-50
2023/10/17 12:59:18;;;;;;;4.28;0.90;;;;;;;18.35;40.86;101545.94;16120073;19;129888;-48
2023/10/17 13:04:40;;;;;;;2.00;0.90;;;;;;;18.34;41.08;101533.16;16117492;19;129412;-50
2023/10/17 13:10:07;;;;;;;2.88;0.93;;;;;;;18.32;40.61;101540.88;16121335;19;129699;-50
2023/10/17 13:15:30;;;;;;;2.33;1.00;;;;;;;18.32;40.54;101527.03;16123551;19;130391;-49
2023/10/17 13:20:57;;;;;;;1.65;0.75;;;;;;;18.30;40.60;101521.72;16122810;19;132142;-47
2023/10/17 13:26:32;;;;;;;1.55;0.90;;;;;;;18.30;40.82;101518.09;16124441;19;129877;-49
2023/10/17 13:31:55;;;;;;;2.97;0.80;;;;;;;18.29;40.83;101505.31;16118761;19;130417;-52
2023/10/17 13:37:17;;;;;;;2.92;0.80;;;;;;;18.27;40.62;101504.72;16119448;19;129504;-52
2023/10/17 13:42:39;;;;;;;1.67;0.70;;;;;;;18.25;40.48;101495.78;16121456;19;130326;-51
2023/10/17 13:48:01;;;;;;;1.75;0.50;;;;;;;18.25;40.51;101490.25;16121563;19;129588;-48
2023/10/17 13:53:24;;;;;;;1.52;0.70;;;;;;;18.25;40.30;101490.25;16117773;19;130315;-53
2023/10/17 13:58:47;;;;;;;2.05;0.68;;;;;;;18.24;40.29;101474.69;16121940;19;132060;-49
2023/10/17 14:04:10;;;;;;;1.40;0.70;;;;;;;18.23;40.63;101482.16;16119810;19;132032;-48
2023/10/17 14:09:32;;;;;;;1.80;0.70;;;;;;;18.22;40.09;101469.41;16119654;19;130248;-50
2023/10/17 14:14:54;;;;;;;2.78;0.60;;;;;;;18.21;40.02;101472.41;16117602;19;130768;-50
2023/10/17 14:20:28;;;;;;;1.25;0.63;;;;;;;18.21;39.91;101453.84;16117752;19;131909;-50
2023/10/17 14:26:03;;;;;;;1.13;0.70;;;;;;;18.21;40.24;101455.78;16119593;19;131982;-50
2023/10/17 14:31:25;;;;;;;2.93;0.70;;;;;;;18.20;40.21;101448.56;16117458;19;129401;-49
2023/10/17 14:36:50;;;;;;;1.47;0.60;;;;;;;18.20;40.01;101443.03;16118466;19;129134;-47
2023/10/17 14:42:17;;;;;;;6.05;0.60;;;;;;;18.20;40.09;101448.56;16118429;19;131146;-53
2023/10/17 14:47:39;;;;;;;2.47;0.75;;;;;;;18.17;40.03;101443.47;16115603;19;129734;-50
2023/10/17 14:53:02;;;;;;;1.63;0.70;;;;;;;18.17;40.16;101437.94;16112053;19;131450;-52
2023/10/17 14:58:24;;;;;;;1.13;0.63;;;;;;;18.17;39.88;101432.41;16116121;19;129247;-53
2023/10/17 15:03:47;;;;;;;4.25;0.77;;;;;;;18.17;39.99;101437.94;16114979;19;129568;-49
2023/10/17 15:09:14;;;;;;;1.77;0.60;;;;;;;18.14;39.98;101428.19;16114697;19;129434;-50
2023/10/17 15:14:36;;;;;;;3.47;0.60;;;;;;;18.14;39.70;101429.00;16113994;19;130695;-49
2023/10/17 15:19:59;;;;;;;2.70;0.68;;;;;;;18.11;40.13;101421.16;16113779;19;131533;-53
2023/10/17 15:25:21;;;;;;;3.17;0.57;;;;;;;18.11;39.93;101423.91;16111472;19;129319;-52
2023/10/17 15:30:45;;;;;;;1.45;0.50;;;;;;;18.11;40.19;101415.63;16112969;19;131252;-48
2023/10/17 15:36:11;;;;;;;2.40;0.68;;;;;;;18.10;39.69;101411.16;16106555;19;131544;-50
2023/10/17 15:41:33;;;;;;;2.65;0.85;;;;;;;18.08;39.89;101416.09;16113579;19;129447;-48
2023/10/17 15:46:56;;;;;;;1.17;0.57;;;;;;;18.07;39.81;101411.63;16107588;19;131940;-49
2023/10/17 15:52:18;;;;;;;1.13;0.65;;;;;;;18.05;39.72;101401.84;16104832;19;129551;-48
2023/10/17 15:57:40;;;;;;;3.53;0.70;;;;;;;18.04;39.77;101412.09;16109031;19;130976;-47
2023/10/17 16:03:03;;;;;;;1.45;0.63;;;;;;;18.03;40.21;101413.16;16112177;19;131407;-51
2023/10/17 16:08:25;;;;;;;5.30;0.88;;;;;;;18.01;39.70;101415.31;16110427;19;130683;-49
2023/10/17 16:13:47;;;;;;;2.08;0.50;;;;;;;18.00;40.04;101419.16;16108598;19;130036;-50
2023/10/17 16:19:10;;;;;;;1.10;0.47;;;;;;;17.99;39.93;101426.63;16119573;19;130776;-49
2023/10/17 16:24:33;;;;;;;1.00;0.57;;;;;;;17.99;40.36;101420.22;16124631;19;130297;-52
2023/10/17 16:29:57;;;;;;;2.35;0.70;;;;;;;17.97;40.15;101414.09;16121385;19;133955;-50
2023/10/17 16:35:19;;;;;;;6.75;0.98;;;;;;;17.96;40.36;101427.06;16115492;19;129759;-49
2023/10/17 16:40:44;;;;;;;13.82;2.55;;;;;;;17.95;40.60;101424.56;16118825;19;132008;-53
2023/10/17 16:46:08;;;;;;;7.50;2.35;;;;;;;17.96;40.49;101421.53;16124459;19;130111;-48
2023/10/17 16:51:30;;;;;;;14.68;2.92;;;;;;;17.98;40.34;101418.53;16121650;19;131262;-55
2023/10/17 16:56:52;;;;;;;12.55;2.80;;;;;;;18.10;40.07;101424.16;16125359;19;130122;-48
2023/10/17 17:02:15;;;;;;;7.40;2.33;;;;;;;18.44;39.86;101425.50;16122616;19;129614;-50
2023/10/17 17:07:40;;;;;;;9.52;2.03;;;;;;;18.88;39.33;101421.69;16113359;19;129641;-52
2023/10/17 17:13:04;;;;;;;9.20;2.25;;;;;;;19.29;38.76;101416.38;16115705;19;131404;-52
2023/10/17 17:18:26;;;;;;;8.48;2.30;;;;;;;19.56;38.72;101416.78;16119073;19;130911;-50
2023/10/17 17:24:07;;;;;;;8.60;2.58;;;;;;;19.72;38.48;101425.47;16113534;19;130843;-55
2023/10/17 17:29:30;;;;;;;8.52;2.58;;;;;;;19.75;38.17;101419.44;16115981;19;130593;-50
2023/10/17 17:34:53;;;;;;;13.80;2.38;;;;;;;19.71;38.69;101418.22;16115752;19;130769;-47
2023/10/17 17:40:15;;;;;;;10.95;2.45;;;;;;;19.66;38.57;101407.84;16116376;19;129823;-53
2023/10/17 17:45:37;;;;;;;10.27;2.30;;;;;;;19.60;38.76;101412.44;16119434;19;130579;-55
2023/10/17 17:50:59;;;;;;;7.13;2.05;;;;;;;19.53;38.80;101420.03;16115716;19;129842;-58
2023/10/17 17:56:21;;;;;;;15.32;1.95;;;;;;;19.47;39.09;101419.06;16119427;19;131005;-48
2023/10/17 18:01:43;;;;;;;18.13;2.38;;;;;;;19.41;39.70;101413.63;16116604;19;129627;-48
2023/10/17 18:07:08;;;;;;;15.38;2.65;;;;;;;19.34;39.95;101406.25;16118248;19;130524;-51
2023/10/17 18:12:33;;;;;;;9.75;2.72;;;;;;;19.27;40.31;101397.22;16119653;19;129435;-54
2023/10/17 18:17:55;;;;;;;;;;;;;;;19.17;40.46;101395.00;16117295;19;129134;-49
2023/10/17 18:23:18;;;;;;;13.32;2.25;;;;;;;19.15;40.36;101388.81;16116957;19;129438;-49
2023/10/17 18:28:40;;;;;;;16.80;2.63;;;;;;;19.10;40.39;101388.72;16098007;19;130036;-47
2023/10/17 18:34:05;;;;;;;19.40;2.97;;;;;;;19.10;40.62;101376.75;16115145;19;131622;-48
2023/10/17 18:39:27;;;;;;;;;;;;;;;19.07;40.78;101375.31;16115506;19;129256;-49
2023/10/17 18:44:50;;;;;;;16.55;2.55;;;;;;;19.17;40.71;101369.19;16116712;19;131282;-47
2023/10/17 18:50:31;;;;;;;12.13;2.50;;;;;;;19.33;41.06;101359.34;16116628;19;129833;-49
2023/10/17 18:56:03;;;;;;;7.13;1.65;;;;;;;19.48;40.45;101354.16;16116577;19;129645;-49
2023/10/17 19:01:25;;;;;;;9.93;2.38;;;;;;;19.59;40.38;101360.78;16112262;19;131611;-46
2023/10/17 19:06:47;;;;;;;13.55;1.95;;;;;;;19.68;40.46;101342.69;16113476;19;129708;-48
2023/10/17 19:12:10;;;;;;;10.43;2.08;;;;;;;19.87;40.32;101345.31;16114704;19;130276;-46
2023/10/17 19:17:32;;;;;;;7.75;1.90;;;;;;;20.17;40.31;101333.19;16112510;19;131077;-49
2023/10/17 19:22:53;;;;;;;7.13;1.35;;;;;;;20.49;39.76;101335.47;16116299;19;133676;-47
2023/10/17 19:28:16;;;;;;;7.93;1.90;;;;;;;20.78;39.17;101318.78;16111024;19;130531;-46
2023/10/17 19:33:39;;;;;;;9.38;1.83;;;;;;;21.05;39.09;101326.44;16113517;19;130163;-46
2023/10/17 19:39:06;;;;;;;7.78;1.40;;;;;;;21.26;38.89;101322.03;16109738;19;129956;-46
2023/10/17 19:44:28;;;;;;;11.73;1.73;;;;;;;21.43;38.94;101319.22;16112757;19;132351;-47
2023/10/17 19:49:50;;;;;;;4.22;1.98;;;;;;;21.54;38.23;101299.94;16108412;19;131006;-46
2023/10/17 19:55:13;;;;;;;8.38;1.77;;;;;;;21.60;38.22;101299.72;16112111;19;129920;-47
2023/10/17 20:00:37;;;;;;;10.18;1.80;;;;;;;21.54;38.52;101305.50;16109779;19;129423;-46
2023/10/17 20:06:00;;;;;;;7.00;1.60;;;;;;;21.42;38.63;101314.75;16107704;19;130374;-47
2023/10/17 20:11:22;;;;;;;5.60;1.27;;;;;;;21.29;39.11;101299.28;16108466;19;130287;-46
2023/10/17 20:16:46;;;;;;;3.72;1.52;;;;;;;21.15;39.14;101293.25;16107665;19;129915;-48
2023/10/17 20:22:10;;;;;;;13.60;2.10;;;;;;;21.00;39.28;101281.88;16108248;19;130121;-44
2023/10/17 20:27:32;;;;;;;8.90;2.25;;;;;;;20.87;39.30;101280.25;16106517;19;131255;-48
2023/10/17 20:32:54;;;;;;;8.60;1.80;;;;;;;20.73;39.63;101268.59;16110511;19;135186;-45
2023/10/17 20:38:16;;;;;;;12.95;2.45;;;;;;;20.62;40.05;101277.88;16104000;19;130400;-48
2023/10/17 20:43:38;;;;;;;11.25;1.88;;;;;;;20.51;40.33;101260.16;16108883;19;130260;-46
2023/10/17 20:49:00;;;;;;;10.18;1.92;;;;;;;20.42;40.45;101265.31;16103642;19;129710;-47
2023/10/17 20:54:22;;;;;;;6.90;1.60;;;;;;;20.33;40.67;101252.88;16103007;19;129917;-47
2023/10/17 20:59:45;;;;;;;7.63;1.52;;;;;;;20.23;40.63;101248.84;16104264;19;130234;-45
2023/10/17 21:05:07;;;;;;;6.32;1.85;;;;;;;20.15;40.83;101235.38;16119053;19;130536;-50
2023/10/17 21:10:37;;;;;;;5.07;1.60;;;;;;;20.08;40.55;101231.88;16120953;19;131852;-44
2023/10/17 21:16:07;;;;;;;7.78;1.60;;;;;;;20.01;41.07;101223.69;16121961;19;131282;-50
2023/10/17 21:21:29;;;;;;;12.82;1.90;;;;;;;19.92;41.01;101214.91;16117756;19;134435;-44
2023/10/17 21:26:52;;;;;;;8.27;1.52;;;;;;;19.89;41.06;101209.84;16120264;19;129537;-45
2023/10/17 21:32:17;;;;;;;5.32;1.58;;;;;;;19.84;41.06;101209.75;16117929;19;130437;-44
2023/10/17 21:37:40;;;;;;;6.22;1.60;;;;;;;19.78;40.71;101205.19;16119040;19;129342;-44
2023/10/17 21:43:19;;;;;;;5.13;1.65;;;;;;;19.68;40.77;101192.81;16119726;19;129499;-46
2023/10/17 21:48:44;;;;;;;6.75;1.88;;;;;;;19.61;40.83;101192.09;16119370;19;129464;-45
2023/10/17 21:54:07;;;;;;;6.03;1.63;;;;;;;19.54;41.21;101183.06;16118580;19;131959;-46
2023/10/17 21:59:29;;;;;;;3.50;1.30;;;;;;;19.50;40.87;101176.31;16120338;19;135644;-46
2023/10/17 22:04:51;;;;;;;4.32;1.10;;;;;;;19.42;41.07;101172.00;16116689;19;130836;-45
2023/10/17 22:10:16;;;;;;;7.35;1.25;;;;;;;19.36;40.89;101151.63;16119115;19;130576;-45
2023/10/17 22:15:42;;;;;;;4.07;1.73;;;;;;;19.32;41.09;101146.81;16113910;19;129815;-47
2023/10/17 22:21:05;;;;;;;;;;;;;;;19.26;40.83;101143.09;16114844;19;129830;-50
2023/10/17 22:26:27;;;;;;;4.85;1.23;;;;;;;19.23;41.05;101146.34;16115306;19;129453;-44
2023/10/17 22:31:49;;;;;;;3.35;1.52;;;;;;;19.19;40.98;101151.53;16115281;19;130799;-44
2023/10/17 22:37:11;;;;;;;6.68;1.38;;;;;;;19.16;41.14;101140.09;16113196;19;129784;-45
2023/10/17 22:42:33;;;;;;;4.53;1.35;;;;;;;19.13;41.23;101135.03;16116223;19;129922;-48
2023/10/17 22:47:58;;;;;;;1.70;0.90;;;;;;;19.08;41.11;101127.44;16125907;19;130934;-45
2023/10/17 22:53:21;;;;;;;6.53;1.45;;;;;;;19.06;41.48;101129.59;16128374;19;129347;-47
2023/10/17 22:58:42;;;;;;;4.30;1.40;;;;;;;19.02;41.33;101117.31;16119607;19;131686;-46
2023/10/17 23:04:05;;;;;;;4.90;1.38;;;;;;;19.00;41.20;101114.78;16117308;19;132012;-46
2023/10/17 23:09:27;;;;;;;3.33;1.40;;;;;;;18.94;41.20;101101.91;16113724;19;129648;-44
2023/10/17 23:14:50;;;;;;;4.40;1.15;;;;;;;18.91;41.08;101105.19;16113764;19;129492;-45
2023/10/17 23:20:12;;;;;;;3.03;1.23;;;;;;;18.89;41.27;101096.25;16114702;19;131797;-46
2023/10/17 23:25:34;;;;;;;2.05;1.08;;;;;;;18.85;41.41;101095.91;16120513;19;129252;-47
2023/10/17 23:30:56;;;;;;;3.70;1.33;;;;;;;18.83;41.29;101086.16;16118426;19;129890;-49
2023/10/17 23:36:18;;;;;;;2.55;1.13;;;;;;;18.81;41.11;101080.00;16116330;19;129912;-47
2023/10/17 23:41:40;;;;;;;2.28;1.20;;;;;;;18.78;40.98;101073.00;16120152;19;130708;-47
2023/10/17 23:47:04;;;;;;;1.98;1.17;;;;;;;18.76;41.30;101064.13;16115279;19;130775;-46
2023/10/17 23:52:26;;;;;;;2.13;1.10;;;;;;;18.73;41.31;101070.97;16115551;19;130524;-47
2023/10/17 23:57:49;;;;;;;3.05;1.27;;;;;;;18.73;41.45;101064.59;16117341;19;131797;-45
